createdAt,value
2018-08-02T00:00:30.068Z,99.90
2018-08-02T00:02:58.444Z,99.90
2018-08-02T00:05:26.754Z,99.90
2018-08-02T00:07:55.172Z,99.90
2018-08-02T00:10:23.526Z,99.90
2018-08-02T00:12:52.025Z,99.90
2018-08-02T00:15:20.371Z,99.90
2018-08-02T00:17:48.881Z,99.90
2018-08-02T00:20:17.300Z,99.90
2018-08-02T00:22:45.712Z,99.90
2018-08-02T00:25:14.061Z,99.90
2018-08-02T00:27:42.472Z,99.90
2018-08-02T00:30:10.907Z,99.90
2018-08-02T00:32:39.258Z,99.90
2018-08-02T00:35:07.648Z,99.90
2018-08-02T00:37:36.057Z,99.90
2018-08-02T00:40:04.674Z,99.90
2018-08-02T00:42:33.145Z,99.90
2018-08-02T00:45:01.514Z,99.90
2018-08-02T00:47:30.014Z,99.90
2018-08-02T00:49:58.440Z,99.90
2018-08-02T00:52:26.876Z,99.90
2018-08-02T00:54:55.253Z,99.90
2018-08-02T00:57:23.650Z,99.90
2018-08-02T00:59:52.130Z,99.90
2018-08-02T01:02:20.636Z,99.90
2018-08-02T01:04:49.124Z,99.90
2018-08-02T01:07:17.497Z,99.90
2018-08-02T01:09:45.921Z,99.90
2018-08-02T01:12:14.393Z,99.90
2018-08-02T01:14:42.839Z,99.90
2018-08-02T01:17:11.767Z,99.90
2018-08-02T01:19:40.197Z,99.90
2018-08-02T01:22:08.648Z,99.90
2018-08-02T01:24:37.036Z,99.90
2018-08-02T01:27:05.745Z,99.90
2018-08-02T01:29:34.127Z,99.90
2018-08-02T01:32:02.670Z,99.90
2018-08-02T01:34:31.035Z,99.90
2018-08-02T01:36:59.540Z,99.90
2018-08-02T01:39:28.113Z,99.90
2018-08-02T01:41:56.505Z,99.90
2018-08-02T01:44:36.408Z,99.90
2018-08-02T01:47:04.854Z,99.90
2018-08-02T01:49:33.264Z,99.90
2018-08-02T01:52:01.694Z,99.90
2018-08-02T01:54:30.184Z,99.90
2018-08-02T01:56:59.691Z,99.90
2018-08-02T01:59:28.055Z,99.90
2018-08-02T02:01:56.496Z,99.90
2018-08-02T02:04:24.913Z,99.90
2018-08-02T02:06:53.380Z,99.90
2018-08-02T02:09:21.778Z,99.90
2018-08-02T02:11:50.146Z,99.90
2018-08-02T02:14:18.469Z,99.90
2018-08-02T02:16:47.144Z,99.90
2018-08-02T02:19:15.661Z,99.90
2018-08-02T02:21:44.087Z,99.90
2018-08-02T02:24:12.620Z,99.90
2018-08-02T02:26:41.038Z,99.90
2018-08-02T02:29:09.706Z,99.90
2018-08-02T02:31:38.146Z,99.90
2018-08-02T02:34:09.660Z,99.90
2018-08-02T02:36:38.110Z,99.90
2018-08-02T02:39:09.028Z,99.90
2018-08-02T02:41:37.457Z,99.90
2018-08-02T02:44:06.115Z,99.90
2018-08-02T02:46:35.052Z,99.90
2018-08-02T02:49:03.507Z,99.90
2018-08-02T02:51:31.955Z,99.90
2018-08-02T02:54:00.404Z,99.90
2018-08-02T02:56:28.764Z,99.90
2018-08-02T02:58:57.266Z,99.90
2018-08-02T03:01:25.775Z,99.90
2018-08-02T03:03:54.187Z,99.90
2018-08-02T03:06:22.589Z,99.90
2018-08-02T03:08:51.117Z,99.90
2018-08-02T03:11:19.424Z,99.90
2018-08-02T03:13:47.961Z,99.90
2018-08-02T03:16:16.369Z,99.90
2018-08-02T03:18:44.795Z,99.90
2018-08-02T03:21:13.156Z,99.90
2018-08-02T03:23:41.563Z,99.90
2018-08-02T03:26:09.911Z,99.90
2018-08-02T03:28:38.388Z,99.90
2018-08-02T03:31:06.897Z,99.90
2018-08-02T03:33:35.230Z,99.90
2018-08-02T03:36:03.673Z,99.90
2018-08-02T03:38:32.100Z,99.90
2018-08-02T03:41:00.534Z,99.90
2018-08-02T03:43:28.918Z,99.90
2018-08-02T03:45:57.340Z,99.90
2018-08-02T03:48:25.738Z,99.90
2018-08-02T03:50:54.155Z,99.90
2018-08-02T03:53:22.568Z,99.90
2018-08-02T03:55:50.938Z,99.90
2018-08-02T03:58:19.307Z,99.90
2018-08-02T04:00:47.803Z,99.90
2018-08-02T04:03:16.243Z,99.90
2018-08-02T04:05:44.800Z,99.90
2018-08-02T04:08:13.224Z,99.90
2018-08-02T04:10:41.629Z,99.90
2018-08-02T04:13:09.977Z,99.90
2018-08-02T04:15:38.344Z,99.90
2018-08-02T04:18:06.701Z,99.90
2018-08-02T04:20:35.229Z,99.90
2018-08-02T04:23:03.700Z,99.90
2018-08-02T04:25:32.182Z,99.90
2018-08-02T04:28:00.604Z,99.90
2018-08-02T04:30:29.050Z,99.90
2018-08-02T04:32:57.380Z,99.90
2018-08-02T04:35:25.870Z,99.90
2018-08-02T04:37:54.222Z,99.90
2018-08-02T04:40:22.544Z,99.90
2018-08-02T04:42:50.915Z,99.90
2018-08-02T04:45:19.283Z,99.90
2018-08-02T04:47:47.616Z,99.90
2018-08-02T04:50:16.013Z,99.90
2018-08-02T04:52:44.444Z,99.90
2018-08-02T04:55:12.921Z,99.90
2018-08-02T04:57:41.283Z,99.90
2018-08-02T05:00:09.654Z,99.90
2018-08-02T05:02:38.053Z,99.90
2018-08-02T05:05:06.626Z,99.90
2018-08-02T05:07:35.013Z,99.90
2018-08-02T05:10:03.410Z,99.90
2018-08-02T05:12:31.812Z,99.90
2018-08-02T05:15:00.220Z,99.90
2018-08-02T05:17:28.634Z,99.90
2018-08-02T05:19:57.039Z,99.90
2018-08-02T05:22:25.424Z,99.90
2018-08-02T05:24:53.761Z,99.90
2018-08-02T05:27:22.124Z,99.90
2018-08-02T05:29:50.478Z,99.90
2018-08-02T05:32:18.837Z,99.90
2018-08-02T05:34:47.302Z,99.90
2018-08-02T05:37:15.777Z,99.90
2018-08-02T05:39:44.281Z,99.90
2018-08-02T05:42:12.646Z,99.90
2018-08-02T05:44:41.153Z,99.90
2018-08-02T05:47:09.569Z,99.90
2018-08-02T05:49:37.980Z,99.90
2018-08-02T05:52:06.374Z,99.90
2018-08-02T05:54:34.836Z,99.90
2018-08-02T05:57:03.308Z,99.90
2018-08-02T05:59:31.698Z,99.90
2018-08-02T06:02:00.032Z,99.90
2018-08-02T06:04:28.435Z,99.90
2018-08-02T06:06:56.901Z,99.90
2018-08-02T06:09:25.316Z,99.80
2018-08-02T06:11:53.767Z,98.40
2018-08-02T06:14:22.172Z,97.40
2018-08-02T06:16:50.668Z,95.90
2018-08-02T06:19:19.025Z,95.60
2018-08-02T06:21:47.474Z,95.50
2018-08-02T06:24:15.935Z,94.90
2018-08-02T06:26:44.327Z,94.40
2018-08-02T06:29:12.689Z,94.20
2018-08-02T06:31:41.095Z,93.90
2018-08-02T06:34:09.511Z,93.20
2018-08-02T06:36:37.869Z,92.80
2018-08-02T06:39:09.279Z,92.10
2018-08-02T06:41:37.836Z,91.90
2018-08-02T06:44:06.342Z,92.00
2018-08-02T06:46:34.903Z,91.80
2018-08-02T06:49:03.381Z,92.20
2018-08-02T06:51:31.791Z,92.30
2018-08-02T06:54:00.383Z,92.30
2018-08-02T06:56:28.818Z,91.70
2018-08-02T06:58:57.259Z,91.40
2018-08-02T07:01:25.762Z,90.90
2018-08-02T07:03:54.676Z,91.10
2018-08-02T07:06:23.218Z,91.80
2018-08-02T07:08:51.555Z,91.00
2018-08-02T07:11:19.918Z,91.00
2018-08-02T07:13:48.392Z,91.70
2018-08-02T07:16:16.899Z,92.00
2018-08-02T07:18:45.567Z,91.90
2018-08-02T07:21:13.953Z,91.40
2018-08-02T07:23:42.309Z,91.30
2018-08-02T07:26:10.629Z,91.40
2018-08-02T07:28:39.030Z,91.80
2018-08-02T07:31:07.369Z,90.90
2018-08-02T07:33:35.772Z,91.20
2018-08-02T07:36:04.129Z,90.50
2018-08-02T07:38:32.547Z,91.60
2018-08-02T07:41:01.005Z,91.40
2018-08-02T07:43:29.507Z,91.90
2018-08-02T07:45:57.810Z,91.20
2018-08-02T07:48:26.172Z,91.00
2018-08-02T07:50:54.796Z,90.80
2018-08-02T07:53:23.102Z,91.00
2018-08-02T07:55:51.651Z,91.70
2018-08-02T07:58:19.987Z,91.00
2018-08-02T08:00:48.424Z,92.00
2018-08-02T08:03:16.790Z,92.10
2018-08-02T08:05:45.445Z,93.40
2018-08-02T08:08:13.864Z,93.20
2018-08-02T08:10:42.323Z,93.50
2018-08-02T08:13:11.378Z,93.60
2018-08-02T08:15:39.929Z,93.20
2018-08-02T08:18:09.270Z,93.00
2018-08-02T08:20:37.718Z,92.20
2018-08-02T08:23:06.100Z,93.10
2018-08-02T08:25:34.807Z,92.70
2018-08-02T08:28:03.407Z,92.70
2018-08-02T08:30:31.837Z,92.00
2018-08-02T08:33:00.191Z,91.50
2018-08-02T08:37:56.678Z,91.30
2018-08-02T08:40:25.574Z,90.50
2018-08-02T08:42:54.023Z,91.00
2018-08-02T08:45:22.429Z,91.50
2018-08-02T08:47:50.933Z,91.10
2018-08-02T08:50:19.360Z,91.10
2018-08-02T08:52:47.874Z,91.60
2018-08-02T08:55:16.306Z,90.90
2018-08-02T08:57:44.796Z,90.10
2018-08-02T09:00:13.121Z,91.30
2018-08-02T09:02:41.508Z,90.80
2018-08-02T09:07:38.159Z,91.50
2018-08-02T09:10:06.599Z,90.00
2018-08-02T09:12:35.054Z,90.60
2018-08-02T09:15:03.534Z,91.70
2018-08-02T09:17:31.887Z,90.50
2018-08-02T09:20:00.325Z,91.30
2018-08-02T09:22:28.852Z,90.50
2018-08-02T09:24:57.218Z,90.50
2018-08-02T09:27:25.669Z,90.80
2018-08-02T09:29:54.142Z,90.10
2018-08-02T09:32:22.536Z,89.20
2018-08-02T09:34:50.999Z,85.80
2018-08-02T09:37:20.240Z,89.10
2018-08-02T09:39:48.669Z,88.50
2018-08-02T09:42:17.098Z,87.60
2018-08-02T09:44:45.536Z,89.80
2018-08-02T09:47:13.887Z,88.40
2018-08-02T09:49:42.192Z,87.30
2018-08-02T09:52:10.624Z,87.30
2018-08-02T09:54:39.326Z,86.60
2018-08-02T09:57:08.890Z,86.80
2018-08-02T09:59:37.258Z,85.70
2018-08-02T10:02:07.821Z,87.50
2018-08-02T10:04:36.715Z,85.50
2018-08-02T10:07:06.017Z,86.30
2018-08-02T10:09:34.452Z,86.70
2018-08-02T10:12:02.932Z,85.40
2018-08-02T10:14:31.317Z,85.20
2018-08-02T10:16:59.725Z,85.40
2018-08-02T10:19:28.137Z,84.40
2018-08-02T10:21:56.497Z,84.20
2018-08-02T10:24:24.856Z,83.20
2018-08-02T10:26:53.332Z,84.20
2018-08-02T10:29:21.651Z,85.30
2018-08-02T10:31:50.094Z,85.20
2018-08-02T10:34:18.521Z,84.20
2018-08-02T10:36:46.936Z,84.10
2018-08-02T10:39:15.385Z,85.60
2018-08-02T10:41:43.729Z,84.20
2018-08-02T10:44:12.123Z,84.20
2018-08-02T10:46:40.521Z,85.40
2018-08-02T10:49:09.006Z,84.20
2018-08-02T10:51:37.435Z,83.40
2018-08-02T10:54:05.841Z,83.60
2018-08-02T10:56:34.278Z,83.80
2018-08-02T10:59:02.784Z,83.40
2018-08-02T11:01:31.291Z,82.80
2018-08-02T11:03:59.615Z,84.80
2018-08-02T11:06:28.099Z,84.40
2018-08-02T11:08:56.611Z,86.50
2018-08-02T11:11:25.021Z,83.30
2018-08-02T11:13:53.393Z,84.10
2018-08-02T11:16:21.817Z,84.10
2018-08-02T11:18:50.254Z,82.70
2018-08-02T11:21:19.507Z,82.00
2018-08-02T11:23:47.955Z,83.60
2018-08-02T11:26:16.423Z,84.70
2018-08-02T11:28:44.840Z,83.40
2018-08-02T11:31:13.279Z,83.30
2018-08-02T11:33:41.713Z,83.20
2018-08-02T11:36:10.132Z,83.60
2018-08-02T11:38:38.595Z,84.90
2018-08-02T11:41:08.024Z,84.10
2018-08-02T11:43:36.474Z,82.30
2018-08-02T11:46:04.941Z,83.40
2018-08-02T11:48:33.329Z,82.80
2018-08-02T11:51:02.028Z,84.00
2018-08-02T11:53:30.381Z,83.80
2018-08-02T11:55:58.825Z,83.90
2018-08-02T11:58:27.257Z,83.60
2018-08-02T12:00:55.640Z,82.40
2018-08-02T12:03:24.085Z,83.40
2018-08-02T12:05:52.481Z,82.40
2018-08-02T12:08:20.954Z,82.90
2018-08-02T12:10:49.311Z,82.90
2018-08-02T12:13:17.836Z,82.70
2018-08-02T12:15:46.316Z,83.10
2018-08-02T12:18:14.765Z,85.20
2018-08-02T12:20:43.143Z,83.00
2018-08-02T12:23:11.555Z,81.80
2018-08-02T12:25:39.996Z,82.90
2018-08-02T12:28:08.387Z,84.50
2018-08-02T12:30:36.954Z,82.20
2018-08-02T12:33:05.347Z,82.00
2018-08-02T12:35:33.802Z,83.10
2018-08-02T12:38:02.195Z,84.00
2018-08-02T12:40:30.715Z,83.20
2018-08-02T12:42:59.072Z,83.40
2018-08-02T12:45:27.481Z,84.00
2018-08-02T12:47:55.980Z,84.30
2018-08-02T12:50:24.528Z,84.90
2018-08-02T12:52:53.036Z,84.10
2018-08-02T12:55:21.354Z,84.50
2018-08-02T12:57:49.860Z,83.40
2018-08-02T13:00:18.220Z,83.80
2018-08-02T13:02:46.618Z,84.20
2018-08-02T13:05:14.950Z,83.70
2018-08-02T13:07:43.324Z,82.70
2018-08-02T13:10:11.799Z,83.60
2018-08-02T13:12:40.237Z,83.70
2018-08-02T13:15:08.561Z,85.40
2018-08-02T13:17:36.976Z,85.10
2018-08-02T13:20:05.425Z,84.10
2018-08-02T13:22:33.891Z,85.00
2018-08-02T13:25:02.492Z,85.20
2018-08-02T13:27:30.919Z,85.40
2018-08-02T13:29:59.291Z,83.90
2018-08-02T13:32:27.666Z,84.90
2018-08-02T13:34:56.107Z,85.10
2018-08-02T13:37:24.477Z,84.70
2018-08-02T13:39:52.888Z,85.50
2018-08-02T13:42:21.322Z,86.30
2018-08-02T13:44:49.832Z,86.40
2018-08-02T13:47:18.203Z,85.60
2018-08-02T13:49:46.691Z,84.80
2018-08-02T13:52:15.171Z,85.40
2018-08-02T13:54:43.600Z,85.80
2018-08-02T13:57:11.907Z,85.40
2018-08-02T13:59:40.361Z,86.20
2018-08-02T14:02:08.829Z,86.40
2018-08-02T14:04:37.204Z,86.10
2018-08-02T14:07:05.906Z,85.90
2018-08-02T14:09:34.378Z,85.00
2018-08-02T14:12:02.757Z,85.90
2018-08-02T14:14:31.164Z,86.60
2018-08-02T14:16:59.550Z,86.60
2018-08-02T14:19:27.997Z,85.90
2018-08-02T14:21:56.446Z,86.50
2018-08-02T14:24:24.873Z,85.50
2018-08-02T14:26:53.375Z,84.90
2018-08-02T14:29:21.825Z,86.40
2018-08-02T14:31:50.195Z,85.10
2018-08-02T14:34:18.657Z,84.60
2018-08-02T14:36:47.039Z,85.10
2018-08-02T14:39:15.469Z,85.70
2018-08-02T14:41:43.881Z,85.30
2018-08-02T14:46:40.626Z,85.20
2018-08-02T14:49:09.096Z,85.10
2018-08-02T14:51:37.447Z,85.00
2018-08-02T14:54:06.034Z,85.10
2018-08-02T14:56:34.832Z,86.10
2018-08-02T14:59:03.292Z,84.60
2018-08-02T15:01:31.868Z,85.20
2018-08-02T15:04:00.256Z,84.40
2018-08-02T15:06:28.752Z,85.00
2018-08-02T15:08:57.185Z,84.50
2018-08-02T15:11:25.565Z,84.80
2018-08-02T15:13:53.950Z,84.00
2018-08-02T15:16:22.487Z,85.60
2018-08-02T15:18:50.890Z,84.80
2018-08-02T15:21:19.201Z,85.40
2018-08-02T15:23:47.719Z,85.80
2018-08-02T15:26:16.068Z,84.90
2018-08-02T15:28:44.514Z,83.90
2018-08-02T15:31:12.952Z,84.10
2018-08-02T15:33:41.435Z,84.10
2018-08-02T15:36:09.820Z,84.60
2018-08-02T15:38:38.223Z,84.40
2018-08-02T15:41:06.887Z,84.30
2018-08-02T15:43:35.319Z,83.90
2018-08-02T15:46:03.816Z,83.60
2018-08-02T15:48:32.202Z,85.00
2018-08-02T15:51:00.620Z,85.70
2018-08-02T15:53:29.003Z,86.80
2018-08-02T15:55:57.605Z,87.60
2018-08-02T15:58:26.028Z,87.90
2018-08-02T16:00:54.470Z,88.20
2018-08-02T16:03:22.873Z,89.20
2018-08-02T16:05:51.291Z,89.80
2018-08-02T16:08:19.772Z,90.00
2018-08-02T16:10:48.287Z,89.90
2018-08-02T16:13:17.129Z,90.00
2018-08-02T16:15:45.557Z,90.20
2018-08-02T16:18:14.045Z,89.50
2018-08-02T16:20:42.522Z,90.40
2018-08-02T16:23:10.859Z,90.20
2018-08-02T16:25:39.244Z,89.00
2018-08-02T16:28:07.526Z,89.90
2018-08-02T16:30:36.038Z,90.50
2018-08-02T16:33:04.423Z,90.40
2018-08-02T16:35:32.875Z,90.40
2018-08-02T16:38:01.302Z,90.70
2018-08-02T16:40:29.903Z,90.20
2018-08-02T16:42:58.273Z,89.80
2018-08-02T16:45:26.765Z,89.90
2018-08-02T16:47:55.285Z,90.00
2018-08-02T16:50:23.762Z,90.10
2018-08-02T16:52:52.347Z,90.10
2018-08-02T16:55:20.816Z,90.50
2018-08-02T16:57:49.206Z,90.50
2018-08-02T17:00:17.605Z,90.60
2018-08-02T17:02:45.953Z,90.90
2018-08-02T17:05:14.524Z,91.00
2018-08-02T17:07:42.901Z,90.80
2018-08-02T17:10:11.369Z,91.10
2018-08-02T17:12:39.739Z,91.30
2018-08-02T17:15:08.264Z,91.30
2018-08-02T17:17:36.731Z,91.70
2018-08-02T17:20:05.599Z,91.70
2018-08-02T17:22:34.002Z,91.80
2018-08-02T17:25:02.469Z,91.70
2018-08-02T17:27:30.896Z,92.00
2018-08-02T17:29:59.277Z,91.80
2018-08-02T17:32:27.685Z,91.70
2018-08-02T17:34:56.090Z,91.40
2018-08-02T17:37:24.620Z,91.90
2018-08-02T17:39:53.352Z,91.60
2018-08-02T17:42:21.748Z,91.20
2018-08-02T17:44:50.124Z,91.00
2018-08-02T17:47:18.623Z,90.80
2018-08-02T17:49:47.252Z,91.00
2018-08-02T17:52:15.621Z,91.30
2018-08-02T17:54:44.019Z,91.70
2018-08-02T17:57:12.494Z,91.90
2018-08-02T17:59:41.377Z,92.10
2018-08-02T18:02:09.765Z,92.30
2018-08-02T18:04:38.159Z,92.60
2018-08-02T18:07:06.837Z,92.60
2018-08-02T18:09:35.255Z,92.40
2018-08-02T18:12:03.756Z,92.30
2018-08-02T18:14:32.184Z,92.30
2018-08-02T18:17:00.561Z,92.80
2018-08-02T18:19:28.946Z,92.80
2018-08-02T18:21:57.473Z,92.90
2018-08-02T18:24:25.895Z,93.40
2018-08-02T18:26:55.366Z,93.60
2018-08-02T18:29:23.796Z,93.90
2018-08-02T18:31:52.267Z,93.70
2018-08-02T18:34:20.703Z,94.00
2018-08-02T18:36:49.127Z,94.00
2018-08-02T18:39:17.509Z,94.10
2018-08-02T18:41:46.014Z,94.20
2018-08-02T18:44:14.365Z,94.30
2018-08-02T18:46:42.976Z,95.10
2018-08-02T18:49:11.299Z,94.90
2018-08-02T18:51:39.730Z,95.20
2018-08-02T18:54:08.184Z,95.20
2018-08-02T18:56:36.573Z,95.30
2018-08-02T18:59:04.991Z,95.10
2018-08-02T19:01:33.449Z,95.20
2018-08-02T19:04:01.900Z,95.20
2018-08-02T19:06:30.390Z,95.50
2018-08-02T19:08:58.842Z,95.40
2018-08-02T19:11:27.227Z,95.80
2018-08-02T19:13:55.693Z,95.70
2018-08-02T19:16:24.078Z,95.60
2018-08-02T19:18:52.434Z,95.70
2018-08-02T19:21:20.847Z,95.60
2018-08-02T19:23:49.289Z,95.80
2018-08-02T19:26:17.754Z,95.90
2018-08-02T19:28:46.121Z,96.10
2018-08-02T19:31:14.492Z,96.00
2018-08-02T19:33:43.211Z,96.10
2018-08-02T19:36:11.708Z,96.30
2018-08-02T19:38:40.148Z,96.10
2018-08-02T19:41:08.573Z,96.40
2018-08-02T19:43:37.131Z,96.40
2018-08-02T19:46:06.308Z,96.60
2018-08-02T19:48:34.722Z,96.50
2018-08-02T19:51:03.204Z,96.30
2018-08-02T19:53:31.621Z,96.60
2018-08-02T19:56:00.099Z,96.70
2018-08-02T19:58:28.415Z,96.90
2018-08-02T20:00:56.837Z,96.90
2018-08-02T20:03:25.282Z,97.10
2018-08-02T20:05:53.712Z,97.00
2018-08-02T20:08:22.237Z,97.30
2018-08-02T20:10:50.641Z,97.10
2018-08-02T20:13:19.160Z,97.10
2018-08-02T20:15:47.526Z,97.40
2018-08-02T20:18:15.980Z,97.40
2018-08-02T20:20:44.301Z,97.60
2018-08-02T20:23:12.776Z,97.70
2018-08-02T20:25:41.211Z,97.80
2018-08-02T20:28:09.683Z,97.90
2018-08-02T20:30:38.027Z,98.00
2018-08-02T20:33:07.163Z,98.20
2018-08-02T20:35:35.601Z,98.30
2018-08-02T20:38:04.097Z,98.50
2018-08-02T20:40:32.411Z,98.80
2018-08-02T20:43:00.913Z,98.80
2018-08-02T20:45:29.359Z,99.00
2018-08-02T20:47:57.764Z,99.00
2018-08-02T20:50:26.171Z,99.20
2018-08-02T20:52:54.539Z,99.50
2018-08-02T20:55:22.964Z,99.70
2018-08-02T20:57:51.361Z,99.90
2018-08-02T21:00:19.755Z,99.90
2018-08-02T21:02:48.113Z,99.90
2018-08-02T21:05:16.455Z,99.90
2018-08-02T21:07:44.811Z,99.90
2018-08-02T21:10:13.159Z,99.90
2018-08-02T21:12:41.596Z,99.90
2018-08-02T21:15:09.887Z,99.90
2018-08-02T21:17:38.270Z,99.90
2018-08-02T21:20:06.728Z,99.90
2018-08-02T21:22:35.107Z,99.90
2018-08-02T21:25:03.656Z,99.90
2018-08-02T21:27:32.023Z,99.90
2018-08-02T21:30:00.596Z,99.90
2018-08-02T21:32:29.045Z,99.90
2018-08-02T21:34:57.395Z,99.90
2018-08-02T21:37:25.776Z,99.90
2018-08-02T21:39:54.190Z,99.90
2018-08-02T21:42:22.707Z,99.90
2018-08-02T21:44:51.151Z,99.90
2018-08-02T21:47:19.560Z,99.90
2018-08-02T21:49:48.015Z,99.90
2018-08-02T21:52:16.383Z,99.90
2018-08-02T21:54:44.959Z,99.90
2018-08-02T21:57:13.257Z,99.90
2018-08-02T21:59:41.696Z,99.90
2018-08-02T22:02:10.091Z,99.90
2018-08-02T22:04:38.446Z,99.90
2018-08-02T22:07:12.151Z,99.90
2018-08-02T22:09:40.537Z,99.90
2018-08-02T22:12:14.379Z,99.90
2018-08-02T22:14:48.045Z,99.90
2018-08-02T22:17:16.483Z,99.90
2018-08-02T22:19:44.876Z,99.90
2018-08-02T22:22:13.248Z,99.90
2018-08-02T22:24:41.757Z,99.90
2018-08-02T22:27:10.059Z,99.90
2018-08-02T22:29:38.540Z,99.90
2018-08-02T22:32:07.344Z,99.90
2018-08-02T22:34:35.733Z,99.90
2018-08-02T22:37:04.222Z,99.90
2018-08-02T22:39:32.636Z,99.90
2018-08-02T22:42:01.090Z,99.90
2018-08-02T22:44:29.560Z,99.90
2018-08-02T22:46:57.933Z,99.90
2018-08-02T22:49:26.441Z,99.90
2018-08-02T22:51:54.779Z,99.90
2018-08-02T22:54:23.189Z,99.90
2018-08-02T22:56:51.623Z,99.90
2018-08-02T22:59:20.041Z,99.90
2018-08-02T23:01:48.540Z,99.90
2018-08-02T23:04:16.945Z,99.90
2018-08-02T23:06:45.330Z,99.90
2018-08-02T23:09:13.785Z,99.90
2018-08-02T23:11:42.261Z,99.90
2018-08-02T23:14:10.730Z,99.90
2018-08-02T23:16:39.225Z,99.90
2018-08-02T23:19:07.637Z,99.90
2018-08-02T23:21:36.023Z,99.90
2018-08-02T23:24:04.495Z,99.90
2018-08-02T23:26:32.975Z,99.90
2018-08-02T23:29:01.400Z,99.90
2018-08-02T23:31:29.836Z,99.90
2018-08-02T23:33:58.286Z,99.90
2018-08-02T23:36:26.715Z,99.90
2018-08-02T23:38:55.111Z,99.90
2018-08-02T23:41:23.535Z,99.90
2018-08-02T23:43:52.265Z,99.90
2018-08-02T23:46:20.710Z,99.90
2018-08-02T23:48:49.555Z,99.90
2018-08-02T23:51:17.931Z,99.90
2018-08-02T23:53:46.362Z,99.90
2018-08-02T23:56:14.918Z,99.90
